createdAt,value
2023-11-22T00:00:29.845Z,80.60
2023-11-22T00:01:30.230Z,80.49
2023-11-22T00:02:29.927Z,80.43
2023-11-22T00:03:29.765Z,80.22
2023-11-22T00:04:29.754Z,80.43
2023-11-22T00:05:30.202Z,81.15
2023-11-22T00:06:29.724Z,81.25
2023-11-22T00:07:30.924Z,81.35
2023-11-22T00:08:29.737Z,81.35
2023-11-22T00:09:29.712Z,81.15
2023-11-22T00:10:29.713Z,81.05
2023-11-22T00:11:30.534Z,80.94
2023-11-22T00:12:29.756Z,81.77
2023-11-22T00:13:30.725Z,82.18
2023-11-22T00:14:29.685Z,82.08
2023-11-22T00:15:29.598Z,81.77
2023-11-22T00:16:31.288Z,81.77
2023-11-22T00:17:29.788Z,81.98
2023-11-22T00:18:29.617Z,81.67
2023-11-22T00:19:29.559Z,81.56
2023-11-22T00:20:29.572Z,81.46
2023-11-22T00:21:29.828Z,81.46
2023-11-22T00:22:29.504Z,81.77
2023-11-22T00:23:29.548Z,81.25
2023-11-22T00:24:29.496Z,81.15
2023-11-22T00:25:29.469Z,81.05
2023-11-22T00:26:29.500Z,80.67
2023-11-22T00:27:33.235Z,80.46
2023-11-22T00:28:29.436Z,80.67
2023-11-22T00:29:29.484Z,80.57
2023-11-22T00:30:29.538Z,80.77
2023-11-22T00:31:29.389Z,81.09
2023-11-22T00:32:29.442Z,80.88
2023-11-22T00:33:29.624Z,80.88
2023-11-22T00:34:29.364Z,81.49
2023-11-22T00:35:29.406Z,81.60
2023-11-22T00:36:29.322Z,81.91
2023-11-22T00:37:30.266Z,82.53
2023-11-22T00:38:29.345Z,82.84
2023-11-22T00:39:29.277Z,82.95
2023-11-22T00:40:29.267Z,82.84
2023-11-22T00:41:29.302Z,82.64
2023-11-22T00:42:29.281Z,82.43
2023-11-22T00:43:29.232Z,82.12
2023-11-22T00:44:29.218Z,82.12
2023-11-22T00:45:29.211Z,82.84
2023-11-22T00:46:29.260Z,82.95
2023-11-22T00:47:29.309Z,82.95
2023-11-22T00:48:29.185Z,82.84
2023-11-22T00:49:29.140Z,82.43
2023-11-22T00:50:29.218Z,82.12
2023-11-22T00:51:29.110Z,82.32
2023-11-22T00:52:29.119Z,82.64
2023-11-22T00:53:30.010Z,83.19
2023-11-22T00:54:30.078Z,83.50
2023-11-22T00:55:29.090Z,83.29
2023-11-22T00:56:29.143Z,83.71
2023-11-22T00:57:29.052Z,83.61
2023-11-22T00:58:29.030Z,82.88
2023-11-22T00:59:29.063Z,82.78
2023-11-22T01:00:28.992Z,82.46
2023-11-22T01:01:28.997Z,82.26
2023-11-22T01:02:29.052Z,82.57
2023-11-22T01:03:29.029Z,83.19
2023-11-22T01:04:28.932Z,83.87
2023-11-22T01:05:29.327Z,83.87
2023-11-22T01:06:28.910Z,83.67
2023-11-22T01:07:28.913Z,83.05
2023-11-22T01:08:28.936Z,82.95
2023-11-22T01:09:28.865Z,82.95
2023-11-22T01:10:28.878Z,82.95
2023-11-22T01:11:28.865Z,82.43
2023-11-22T01:12:28.857Z,82.22
2023-11-22T01:13:28.817Z,82.32
2023-11-22T01:14:28.846Z,82.74
2023-11-22T01:15:28.798Z,82.64
2023-11-22T01:16:28.773Z,81.49
2023-11-22T01:17:29.012Z,81.81
2023-11-22T01:18:37.663Z,82.22
2023-11-22T01:19:28.753Z,82.53
2023-11-22T01:20:28.748Z,82.53
2023-11-22T01:21:28.695Z,82.32
2023-11-22T01:22:28.711Z,81.91
2023-11-22T01:23:28.693Z,82.22
2023-11-22T01:24:28.668Z,82.12
2023-11-22T01:25:28.679Z,82.32
2023-11-22T01:26:28.717Z,82.22
2023-11-22T01:27:28.655Z,81.49
2023-11-22T01:28:28.642Z,81.19
2023-11-22T01:29:28.660Z,81.29
2023-11-22T01:30:28.598Z,81.81
2023-11-22T01:31:28.598Z,82.39
2023-11-22T01:32:28.667Z,82.80
2023-11-22T01:33:28.541Z,82.08
2023-11-22T01:34:28.532Z,81.77
2023-11-22T01:35:28.580Z,82.29
2023-11-22T01:36:28.513Z,83.22
2023-11-22T01:37:28.518Z,83.42
2023-11-22T01:38:28.532Z,83.32
2023-11-22T01:39:28.457Z,83.73
2023-11-22T01:40:28.449Z,83.73
2023-11-22T01:41:28.552Z,83.32
2023-11-22T01:42:28.449Z,83.22
2023-11-22T01:43:28.408Z,82.70
2023-11-22T01:44:28.474Z,82.76
2023-11-22T01:45:28.388Z,83.22
2023-11-22T01:46:28.407Z,83.80
2023-11-22T01:47:28.591Z,83.80
2023-11-22T01:48:28.356Z,83.70
2023-11-22T01:49:28.335Z,83.18
2023-11-22T01:50:28.434Z,83.18
2023-11-22T01:51:28.342Z,82.56
2023-11-22T01:52:28.309Z,82.04
2023-11-22T01:53:28.379Z,81.67
2023-11-22T01:54:28.289Z,82.29
2023-11-22T01:55:28.345Z,82.29
2023-11-22T01:56:28.511Z,81.77
2023-11-22T01:57:28.339Z,81.46
2023-11-22T01:58:28.313Z,81.77
2023-11-22T01:59:28.317Z,82.50
2023-11-22T02:00:29.398Z,81.35
2023-11-22T02:01:28.262Z,80.84
2023-11-22T02:02:28.269Z,80.94
2023-11-22T02:03:28.384Z,81.15
2023-11-22T02:04:28.163Z,81.25
2023-11-22T02:05:28.149Z,80.84
2023-11-22T02:06:28.110Z,81.25
2023-11-22T02:07:28.091Z,81.98
2023-11-22T02:08:28.091Z,82.60
2023-11-22T02:09:28.063Z,82.90
2023-11-22T02:10:28.084Z,82.70
2023-11-22T02:11:28.065Z,81.67
2023-11-22T02:12:28.031Z,81.35
2023-11-22T02:13:28.021Z,80.94
2023-11-22T02:14:28.149Z,81.25
2023-11-22T02:15:28.000Z,82.04
2023-11-22T02:16:28.051Z,81.42
2023-11-22T02:17:28.051Z,80.90
2023-11-22T02:18:28.006Z,80.60
2023-11-22T02:19:27.957Z,81.01
2023-11-22T02:20:27.925Z,81.21
2023-11-22T02:21:27.898Z,80.90
2023-11-22T02:22:27.897Z,81.52
2023-11-22T02:23:28.081Z,81.63
2023-11-22T02:24:27.883Z,81.21
2023-11-22T02:25:27.845Z,81.21
2023-11-22T02:26:27.869Z,81.73
2023-11-22T02:27:27.843Z,82.25
2023-11-22T02:28:27.837Z,82.97
2023-11-22T02:29:27.826Z,83.18
2023-11-22T02:30:27.801Z,82.87
2023-11-22T02:31:27.762Z,82.87
2023-11-22T02:32:27.809Z,83.18
2023-11-22T02:33:27.760Z,83.18
2023-11-22T02:34:27.788Z,82.25
2023-11-22T02:35:27.711Z,81.94
2023-11-22T02:36:27.719Z,81.52
2023-11-22T02:37:27.680Z,81.52
2023-11-22T02:38:27.722Z,82.04
2023-11-22T02:39:27.653Z,81.94
2023-11-22T02:40:27.666Z,82.04
2023-11-22T02:41:27.679Z,82.76
2023-11-22T02:42:27.623Z,83.07
2023-11-22T02:43:27.609Z,82.45
2023-11-22T02:44:27.611Z,81.63
2023-11-22T02:45:27.580Z,82.15
2023-11-22T02:46:27.667Z,82.25
2023-11-22T02:47:27.667Z,81.35
2023-11-22T02:48:27.548Z,80.22
2023-11-22T02:49:27.529Z,78.77
2023-11-22T02:50:27.559Z,78.56
2023-11-22T02:51:27.487Z,79.08
2023-11-22T02:52:27.557Z,79.60
2023-11-22T02:53:27.481Z,79.91
2023-11-22T02:54:27.457Z,80.43
2023-11-22T02:55:27.444Z,79.70
2023-11-22T02:56:48.438Z,79.60
2023-11-22T02:57:27.438Z,78.77
2023-11-22T02:58:27.518Z,77.94
2023-11-22T02:59:27.435Z,78.25
2023-11-22T03:00:27.371Z,78.36
2023-11-22T03:01:27.452Z,78.25
2023-11-22T03:02:27.462Z,78.77
2023-11-22T03:03:27.428Z,78.98
2023-11-22T03:04:27.330Z,79.08
2023-11-22T03:05:27.345Z,79.80
2023-11-22T03:06:27.298Z,79.49
2023-11-22T03:07:27.289Z,79.39
2023-11-22T03:08:27.287Z,78.36
2023-11-22T03:09:27.246Z,79.12
2023-11-22T03:10:27.227Z,79.94
2023-11-22T03:11:27.285Z,78.29
2023-11-22T03:12:27.211Z,78.39
2023-11-22T03:13:27.200Z,78.29
2023-11-22T03:14:27.210Z,78.08
2023-11-22T03:15:27.174Z,77.67
2023-11-22T03:16:27.212Z,77.19
2023-11-22T03:17:27.182Z,77.50
2023-11-22T03:18:27.138Z,78.12
2023-11-22T03:19:27.108Z,78.85
2023-11-22T03:20:27.112Z,79.40
2023-11-22T03:21:27.100Z,79.40
2023-11-22T03:22:27.088Z,79.40
2023-11-22T03:23:27.092Z,79.30
2023-11-22T03:24:27.044Z,79.40
2023-11-22T03:25:27.058Z,79.81
2023-11-22T03:26:27.055Z,80.05
2023-11-22T03:27:27.015Z,80.16
2023-11-22T03:28:26.989Z,80.57
2023-11-22T03:29:27.021Z,80.88
2023-11-22T03:30:26.995Z,80.99
2023-11-22T03:31:26.965Z,81.20
2023-11-22T03:32:27.005Z,80.88
2023-11-22T03:33:26.975Z,80.88
2023-11-22T03:34:26.965Z,80.99
2023-11-22T03:35:26.966Z,80.99
2023-11-22T03:36:26.900Z,80.99
2023-11-22T03:37:26.893Z,81.20
2023-11-22T03:38:26.920Z,81.30
2023-11-22T03:39:26.898Z,81.61
2023-11-22T03:40:26.874Z,81.82
2023-11-22T03:41:26.869Z,81.92
2023-11-22T03:42:26.821Z,81.82
2023-11-22T03:43:26.809Z,81.82
2023-11-22T03:44:26.969Z,81.30
2023-11-22T03:45:26.788Z,81.44
2023-11-22T03:46:26.782Z,81.23
2023-11-22T03:47:26.939Z,81.23
2023-11-22T03:48:26.778Z,81.54
2023-11-22T03:49:26.750Z,81.54
2023-11-22T03:50:26.766Z,81.44
2023-11-22T03:51:26.720Z,81.75
2023-11-22T03:52:26.687Z,81.85
2023-11-22T03:53:26.703Z,82.06
2023-11-22T03:54:26.678Z,81.54
2023-11-22T03:55:26.674Z,81.02
2023-11-22T03:56:26.678Z,80.71
2023-11-22T03:57:26.627Z,80.51
2023-11-22T03:58:26.629Z,80.40
2023-11-22T03:59:26.654Z,80.51
2023-11-22T04:00:26.609Z,80.61
2023-11-22T04:01:26.617Z,80.61
2023-11-22T04:02:26.578Z,81.13
2023-11-22T04:03:26.704Z,81.13
2023-11-22T04:04:26.555Z,80.40
2023-11-22T04:05:26.571Z,79.68
2023-11-22T04:06:26.534Z,79.47
2023-11-22T04:07:26.499Z,79.78
2023-11-22T04:08:26.532Z,79.68
2023-11-22T04:09:26.471Z,79.41
2023-11-22T04:10:26.480Z,79.41
2023-11-22T04:11:26.466Z,78.89
2023-11-22T04:12:26.458Z,78.89
2023-11-22T04:13:26.446Z,79.51
2023-11-22T04:14:26.445Z,79.51
2023-11-22T04:15:26.404Z,78.72
2023-11-22T04:16:26.411Z,78.72
2023-11-22T04:17:26.479Z,78.51
2023-11-22T04:18:26.425Z,78.61
2023-11-22T04:19:26.349Z,79.03
2023-11-22T04:20:26.380Z,79.13
2023-11-22T04:21:26.322Z,79.13
2023-11-22T04:22:26.327Z,79.03
2023-11-22T04:23:26.316Z,79.03
2023-11-22T04:24:26.280Z,79.06
2023-11-22T04:25:26.273Z,79.48
2023-11-22T04:26:26.295Z,79.48
2023-11-22T04:27:26.266Z,79.48
2023-11-22T04:28:26.250Z,80.10
2023-11-22T04:29:26.235Z,80.00
2023-11-22T04:30:26.206Z,79.27
2023-11-22T04:31:26.212Z,79.58
2023-11-22T04:32:26.324Z,79.69
2023-11-22T04:33:26.424Z,79.79
2023-11-22T04:34:26.175Z,79.48
2023-11-22T04:35:26.211Z,79.27
2023-11-22T04:36:26.162Z,79.27
2023-11-22T04:37:26.115Z,79.27
2023-11-22T04:38:26.201Z,79.27
2023-11-22T04:39:26.095Z,78.86
2023-11-22T04:40:26.088Z,78.86
2023-11-22T04:41:26.113Z,79.06
2023-11-22T04:42:26.060Z,78.86
2023-11-22T04:43:26.047Z,78.75
2023-11-22T04:44:26.063Z,78.89
2023-11-22T04:45:26.032Z,78.99
2023-11-22T04:46:26.044Z,79.51
2023-11-22T04:47:26.034Z,79.72
2023-11-22T04:48:26.058Z,79.51
2023-11-22T04:49:25.969Z,79.41
2023-11-22T04:50:25.988Z,79.61
2023-11-22T04:51:25.958Z,79.10
2023-11-22T04:52:25.937Z,79.10
2023-11-22T04:53:25.965Z,78.99
2023-11-22T04:54:25.897Z,78.99
2023-11-22T04:55:25.922Z,78.82
2023-11-22T04:56:25.896Z,78.41
2023-11-22T04:57:25.875Z,79.03
2023-11-22T04:58:25.849Z,79.13
2023-11-22T04:59:25.908Z,78.92
2023-11-22T05:00:25.864Z,79.24
2023-11-22T05:01:26.859Z,79.65
2023-11-22T05:02:25.817Z,79.76
2023-11-22T05:03:25.831Z,79.44
2023-11-22T05:04:25.805Z,79.44
2023-11-22T05:05:25.849Z,79.44
2023-11-22T05:06:25.755Z,79.24
2023-11-22T05:07:25.744Z,79.44
2023-11-22T05:08:25.745Z,79.24
2023-11-22T05:09:25.739Z,79.06
2023-11-22T05:10:25.779Z,78.75
2023-11-22T05:11:25.774Z,78.41
2023-11-22T05:12:25.710Z,78.23
2023-11-22T05:13:25.692Z,77.92
2023-11-22T05:14:25.720Z,78.41
2023-11-22T05:15:25.639Z,77.89
2023-11-22T05:16:25.705Z,77.51
2023-11-22T05:17:25.740Z,77.72
2023-11-22T05:18:25.658Z,77.30
2023-11-22T05:19:25.590Z,76.99
2023-11-22T05:20:25.586Z,76.78
2023-11-22T05:21:25.571Z,76.26
2023-11-22T05:22:25.563Z,76.26
2023-11-22T05:23:25.606Z,75.95
2023-11-22T05:24:25.529Z,76.06
2023-11-22T05:25:25.540Z,76.26
2023-11-22T05:26:25.546Z,76.06
2023-11-22T05:27:25.492Z,75.74
2023-11-22T05:28:25.492Z,75.54
2023-11-22T05:29:28.450Z,76.06
2023-11-22T05:30:26.444Z,75.95
2023-11-22T05:31:25.461Z,75.64
2023-11-22T05:32:25.444Z,75.22
2023-11-22T05:33:25.486Z,74.91
2023-11-22T05:34:25.384Z,74.60
2023-11-22T05:35:25.425Z,74.18
2023-11-22T05:36:25.397Z,74.49
2023-11-22T05:37:26.279Z,74.43
2023-11-22T05:38:25.384Z,74.22
2023-11-22T05:39:25.359Z,74.32
2023-11-22T05:40:25.312Z,74.43
2023-11-22T05:41:25.345Z,74.84
2023-11-22T05:42:25.315Z,74.84
2023-11-22T05:43:25.281Z,75.15
2023-11-22T05:44:25.288Z,75.36
2023-11-22T05:45:25.251Z,74.84
2023-11-22T05:46:25.244Z,74.43
2023-11-22T05:47:25.274Z,74.53
2023-11-22T05:48:25.346Z,74.32
2023-11-22T05:49:25.225Z,74.32
2023-11-22T05:50:25.253Z,74.95
2023-11-22T05:51:25.245Z,75.36
2023-11-22T05:52:25.180Z,75.46
2023-11-22T05:53:25.235Z,75.98
2023-11-22T05:54:25.176Z,76.19
2023-11-22T05:55:26.086Z,75.26
2023-11-22T05:56:25.169Z,74.95
2023-11-22T05:57:25.274Z,74.84
2023-11-22T05:58:25.211Z,74.74
2023-11-22T05:59:25.180Z,74.53
2023-11-22T06:00:25.099Z,74.43
2023-11-22T06:01:25.078Z,73.80
2023-11-22T06:02:25.105Z,73.91
2023-11-22T06:03:25.128Z,74.35
2023-11-22T06:04:25.118Z,74.35
2023-11-22T06:05:25.125Z,74.25
2023-11-22T06:06:25.000Z,74.04
2023-11-22T06:07:24.982Z,74.35
2023-11-22T06:08:25.030Z,74.88
2023-11-22T06:09:24.946Z,75.71
2023-11-22T06:10:24.956Z,76.92
2023-11-22T06:11:24.983Z,88.17
2023-11-22T06:12:24.901Z,99.99
2023-11-22T06:13:24.910Z,99.99
2023-11-22T06:14:24.957Z,99.99
2023-11-22T06:15:25.082Z,96.90
2023-11-22T06:16:24.894Z,90.75
2023-11-22T06:17:24.905Z,83.42
2023-11-22T06:18:24.845Z,79.08
2023-11-22T06:19:24.814Z,60.93
2023-11-22T06:20:24.846Z,60.12
2023-11-22T06:21:24.795Z,61.26
2023-11-22T06:22:24.782Z,62.59
2023-11-22T06:23:24.811Z,64.12
2023-11-22T06:24:24.788Z,66.28
2023-11-22T06:25:24.770Z,68.21
2023-11-22T06:26:24.826Z,70.04
2023-11-22T06:27:24.762Z,71.42
2023-11-22T06:28:24.700Z,72.42
2023-11-22T06:29:24.720Z,73.07
2023-11-22T06:30:24.687Z,73.39
2023-11-22T06:31:24.659Z,73.94
2023-11-22T06:32:24.693Z,74.46
2023-11-22T06:33:24.692Z,74.77
2023-11-22T06:34:24.634Z,74.98
2023-11-22T06:35:24.665Z,75.29
2023-11-22T06:36:24.626Z,75.71
2023-11-22T06:37:24.608Z,76.43
2023-11-22T06:38:24.612Z,76.95
2023-11-22T06:39:24.596Z,77.06
2023-11-22T06:40:24.565Z,77.20
2023-11-22T06:41:24.571Z,77.72
2023-11-22T06:42:24.529Z,78.24
2023-11-22T06:43:24.520Z,78.14
2023-11-22T06:44:24.582Z,78.45
2023-11-22T06:45:24.491Z,78.45
2023-11-22T06:46:24.488Z,78.55
2023-11-22T06:47:24.551Z,78.66
2023-11-22T06:48:24.558Z,78.76
2023-11-22T06:49:24.460Z,79.07
2023-11-22T06:50:24.431Z,78.66
2023-11-22T06:51:24.414Z,78.86
2023-11-22T06:52:24.402Z,78.86
2023-11-22T06:53:24.426Z,78.86
2023-11-22T06:54:24.381Z,79.28
2023-11-22T06:55:24.373Z,79.42
2023-11-22T06:56:24.396Z,79.63
2023-11-22T06:57:24.362Z,79.63
2023-11-22T06:58:24.355Z,79.66
2023-11-22T06:59:24.360Z,79.77
2023-11-22T07:00:24.291Z,80.22
2023-11-22T07:01:24.295Z,80.43
2023-11-22T07:02:24.380Z,80.74
2023-11-22T07:03:24.419Z,80.64
2023-11-22T07:04:24.369Z,80.33
2023-11-22T07:05:24.283Z,80.78
2023-11-22T07:06:24.218Z,81.72
2023-11-22T07:07:24.224Z,82.14
2023-11-22T07:08:24.199Z,82.14
2023-11-22T07:09:24.182Z,82.45
2023-11-22T07:10:24.164Z,81.72
2023-11-22T07:11:24.221Z,81.62
2023-11-22T07:12:24.146Z,81.93
2023-11-22T07:13:24.136Z,81.89
2023-11-22T07:14:24.173Z,81.68
2023-11-22T07:15:24.179Z,81.58
2023-11-22T07:16:24.085Z,81.58
2023-11-22T07:17:24.139Z,81.79
2023-11-22T07:18:24.160Z,82.20
2023-11-22T07:19:31.617Z,82.27
2023-11-22T07:20:24.031Z,82.17
2023-11-22T07:21:24.038Z,82.27
2023-11-22T07:22:24.022Z,82.06
2023-11-22T07:23:23.994Z,81.96
2023-11-22T07:24:23.975Z,82.06
2023-11-22T07:25:23.959Z,81.75
2023-11-22T07:26:24.036Z,81.54
2023-11-22T07:27:23.947Z,81.75
2023-11-22T07:28:23.921Z,81.54
2023-11-22T07:29:23.915Z,82.06
2023-11-22T07:30:23.910Z,82.58
2023-11-22T07:31:24.020Z,83.42
2023-11-22T07:32:23.922Z,83.52
2023-11-22T07:33:23.878Z,83.10
2023-11-22T07:34:23.841Z,82.17
2023-11-22T07:35:23.877Z,82.13
2023-11-22T07:36:23.858Z,82.13
2023-11-22T07:37:23.799Z,82.34
2023-11-22T07:38:23.865Z,82.34
2023-11-22T07:39:23.776Z,81.81
2023-11-22T07:40:23.928Z,81.81
2023-11-22T07:41:23.794Z,81.19
2023-11-22T07:42:23.762Z,81.50
2023-11-22T07:43:23.720Z,80.98
2023-11-22T07:44:23.729Z,80.88
2023-11-22T07:45:23.812Z,81.09
2023-11-22T07:46:23.709Z,81.29
2023-11-22T07:47:23.750Z,81.09
2023-11-22T07:48:23.683Z,80.77
2023-11-22T07:49:23.633Z,80.67
2023-11-22T07:50:23.681Z,80.36
2023-11-22T07:51:23.623Z,80.36
2023-11-22T07:52:23.606Z,81.09
2023-11-22T07:53:23.633Z,80.88
2023-11-22T07:54:23.655Z,80.74
2023-11-22T07:55:23.592Z,80.94
2023-11-22T07:56:23.572Z,81.36
2023-11-22T07:57:23.535Z,81.36
2023-11-22T07:58:23.527Z,81.57
2023-11-22T07:59:23.554Z,81.36
2023-11-22T08:00:23.530Z,80.63
2023-11-22T08:01:23.499Z,79.69
2023-11-22T08:02:23.562Z,78.97
2023-11-22T08:03:23.648Z,78.45
2023-11-22T08:04:23.491Z,78.45
2023-11-22T08:05:23.491Z,78.14
2023-11-22T08:06:23.421Z,77.61
2023-11-22T08:07:23.412Z,77.69
2023-11-22T08:08:23.417Z,77.48
2023-11-22T08:09:23.400Z,77.37
2023-11-22T08:10:23.373Z,77.06
2023-11-22T08:11:23.406Z,76.33
2023-11-22T08:12:23.350Z,76.43
2023-11-22T08:13:23.330Z,76.82
2023-11-22T08:14:24.904Z,75.57
2023-11-22T08:15:23.298Z,74.95
2023-11-22T08:16:23.359Z,74.32
2023-11-22T08:17:23.338Z,75.22
2023-11-22T08:18:23.358Z,76.68
2023-11-22T08:19:23.264Z,76.47
2023-11-22T08:20:23.265Z,75.29
2023-11-22T08:21:23.220Z,74.36
2023-11-22T08:22:23.216Z,73.94
2023-11-22T08:23:23.243Z,73.84
2023-11-22T08:24:23.242Z,72.59
2023-11-22T08:25:23.179Z,73.00
2023-11-22T08:26:23.189Z,71.21
2023-11-22T08:27:23.156Z,70.17
2023-11-22T08:28:23.158Z,70.79
2023-11-22T08:29:23.148Z,71.00
2023-11-22T08:30:23.110Z,71.11
2023-11-22T08:31:23.161Z,69.96
2023-11-22T08:32:23.117Z,70.17
2023-11-22T08:33:23.138Z,71.21
2023-11-22T08:34:23.072Z,72.22
2023-11-22T08:35:23.096Z,71.70
2023-11-22T08:36:23.039Z,71.70
2023-11-22T08:37:23.020Z,71.49
2023-11-22T08:38:23.092Z,72.39
2023-11-22T08:39:23.005Z,71.97
2023-11-22T08:40:23.007Z,71.14
2023-11-22T08:41:22.993Z,71.35
2023-11-22T08:42:22.978Z,71.77
2023-11-22T08:43:22.960Z,70.80
2023-11-22T08:44:22.977Z,70.18
2023-11-22T08:45:22.917Z,70.80
2023-11-22T08:46:22.942Z,70.39
2023-11-22T08:47:22.949Z,69.97
2023-11-22T08:48:22.902Z,70.07
2023-11-22T08:49:22.868Z,70.80
2023-11-22T08:50:22.879Z,69.76
2023-11-22T08:51:22.844Z,70.18
2023-11-22T08:52:22.854Z,69.56
2023-11-22T08:53:22.892Z,69.56
2023-11-22T08:54:22.817Z,69.07
2023-11-22T08:55:22.793Z,69.48
2023-11-22T08:56:22.868Z,70.00
2023-11-22T08:57:22.812Z,70.62
2023-11-22T08:58:22.760Z,70.31
2023-11-22T08:59:22.784Z,70.73
2023-11-22T09:00:22.746Z,70.21
2023-11-22T09:01:22.778Z,70.62
2023-11-22T09:02:22.763Z,70.73
2023-11-22T09:03:22.820Z,70.62
2023-11-22T09:04:22.713Z,71.14
2023-11-22T09:05:22.719Z,71.25
2023-11-22T09:06:22.689Z,71.11
2023-11-22T09:07:22.642Z,70.62
2023-11-22T09:08:25.791Z,69.69
2023-11-22T09:09:23.615Z,70.00
2023-11-22T09:10:22.618Z,70.10
2023-11-22T09:11:22.653Z,70.73
2023-11-22T09:12:22.587Z,70.83
2023-11-22T09:13:22.698Z,70.45
2023-11-22T09:14:22.586Z,70.25
2023-11-22T09:15:22.542Z,70.76
2023-11-22T09:16:22.573Z,70.56
2023-11-22T09:17:22.548Z,70.76
2023-11-22T09:18:22.542Z,70.66
2023-11-22T09:19:22.485Z,70.45
2023-11-22T09:20:22.491Z,70.38
2023-11-22T09:21:22.484Z,71.21
2023-11-22T09:22:22.446Z,71.21
2023-11-22T09:23:22.477Z,71.62
2023-11-22T09:24:22.445Z,71.31
2023-11-22T09:25:22.425Z,71.73
2023-11-22T09:26:22.436Z,71.62
2023-11-22T09:27:22.387Z,71.83
2023-11-22T09:28:22.406Z,72.77
2023-11-22T09:29:22.396Z,72.87
2023-11-22T09:30:22.371Z,72.45
2023-11-22T09:31:22.362Z,71.62
2023-11-22T09:32:22.356Z,71.86
2023-11-22T09:33:22.341Z,70.62
2023-11-22T09:34:22.366Z,71.45
2023-11-22T09:35:22.314Z,71.86
2023-11-22T09:36:22.302Z,72.17
2023-11-22T09:37:22.257Z,72.49
2023-11-22T09:38:22.357Z,73.11
2023-11-22T09:39:22.259Z,73.32
2023-11-22T09:40:22.265Z,73.22
2023-11-22T09:41:22.232Z,72.90
2023-11-22T09:42:22.206Z,72.25
2023-11-22T09:43:22.375Z,71.83
2023-11-22T09:44:22.305Z,70.69
2023-11-22T09:45:22.188Z,71.52
2023-11-22T09:46:22.186Z,71.52
2023-11-22T09:47:22.290Z,70.69
2023-11-22T09:48:22.193Z,71.08
2023-11-22T09:49:22.122Z,70.87
2023-11-22T09:50:22.143Z,71.39
2023-11-22T09:51:22.089Z,71.80
2023-11-22T09:52:22.062Z,71.28
2023-11-22T09:53:22.087Z,71.59
2023-11-22T09:54:22.054Z,71.59
2023-11-22T09:55:22.022Z,71.45
2023-11-22T09:56:22.080Z,71.45
2023-11-22T09:57:22.007Z,71.66
2023-11-22T09:58:21.987Z,70.70
2023-11-22T09:59:22.037Z,70.46
2023-11-22T10:00:21.964Z,69.84
2023-11-22T10:01:21.941Z,69.21
2023-11-22T10:02:22.039Z,68.56
2023-11-22T10:03:22.148Z,68.66
2023-11-22T10:04:21.983Z,68.04
2023-11-22T10:05:21.942Z,68.98
2023-11-22T10:06:21.897Z,68.22
2023-11-22T10:07:21.874Z,68.56
2023-11-22T10:08:21.889Z,67.83
2023-11-22T10:09:21.900Z,69.08
2023-11-22T10:10:21.846Z,69.39
2023-11-22T10:11:21.907Z,69.49
2023-11-22T10:12:21.823Z,69.70
2023-11-22T10:13:21.815Z,69.70
2023-11-22T10:14:21.820Z,68.98
2023-11-22T10:15:21.780Z,68.77
2023-11-22T10:16:21.770Z,68.32
2023-11-22T10:17:21.800Z,68.12
2023-11-22T10:18:21.883Z,67.18
2023-11-22T10:19:21.766Z,66.56
2023-11-22T10:20:21.746Z,67.18
2023-11-22T10:21:21.701Z,67.57
2023-11-22T10:22:21.704Z,67.77
2023-11-22T10:23:21.736Z,68.70
2023-11-22T10:24:21.672Z,68.57
2023-11-22T10:25:21.656Z,67.33
2023-11-22T10:26:21.680Z,66.19
2023-11-22T10:27:22.238Z,66.81
2023-11-22T10:28:21.748Z,66.50
2023-11-22T10:29:21.668Z,65.78
2023-11-22T10:30:21.588Z,65.88
2023-11-22T10:31:21.659Z,66.26
2023-11-22T10:32:21.649Z,65.85
2023-11-22T10:33:21.602Z,65.88
2023-11-22T10:34:21.542Z,65.99
2023-11-22T10:35:21.540Z,66.19
2023-11-22T10:36:21.530Z,66.36
2023-11-22T10:37:21.498Z,66.47
2023-11-22T10:38:21.526Z,67.19
2023-11-22T10:39:21.510Z,66.78
2023-11-22T10:40:21.466Z,66.36
2023-11-22T10:41:21.507Z,66.67
2023-11-22T10:42:21.440Z,66.36
2023-11-22T10:43:21.433Z,66.47
2023-11-22T10:44:21.490Z,65.02
2023-11-22T10:45:21.432Z,65.88
2023-11-22T10:46:21.447Z,64.74
2023-11-22T10:47:21.429Z,64.23
2023-11-22T10:48:21.472Z,65.47
2023-11-22T10:49:21.338Z,66.60
2023-11-22T10:50:21.368Z,67.33
2023-11-22T10:51:21.333Z,66.91
2023-11-22T10:52:21.303Z,67.12
2023-11-22T10:53:21.327Z,67.43
2023-11-22T10:54:21.278Z,65.67
2023-11-22T10:55:21.278Z,65.78
2023-11-22T10:56:22.387Z,66.60
2023-11-22T10:57:21.235Z,67.43
2023-11-22T10:58:21.232Z,67.54
2023-11-22T10:59:21.253Z,67.12
2023-11-22T11:00:21.215Z,67.74
2023-11-22T11:01:21.346Z,67.22
2023-11-22T11:02:21.205Z,66.60
2023-11-22T11:03:21.276Z,66.39
2023-11-22T11:04:21.331Z,66.91
2023-11-22T11:05:21.198Z,66.81
2023-11-22T11:06:21.128Z,66.60
2023-11-22T11:07:21.101Z,67.22
2023-11-22T11:08:21.161Z,67.02
2023-11-22T11:09:21.108Z,66.91
2023-11-22T11:10:24.897Z,65.78
2023-11-22T11:11:21.079Z,65.85
2023-11-22T11:12:21.041Z,66.36
2023-11-22T11:13:21.047Z,67.09
2023-11-22T11:14:21.075Z,65.85
2023-11-22T11:15:21.003Z,65.44
2023-11-22T11:16:21.039Z,65.85
2023-11-22T11:17:21.004Z,65.41
2023-11-22T11:18:21.097Z,65.61
2023-11-22T11:19:20.948Z,64.99
2023-11-22T11:20:21.346Z,65.30
2023-11-22T11:21:20.928Z,65.92
2023-11-22T11:22:21.025Z,66.03
2023-11-22T11:23:21.062Z,66.61
2023-11-22T11:24:20.887Z,66.61
2023-11-22T11:25:20.879Z,64.96
2023-11-22T11:26:20.884Z,64.55
2023-11-22T11:27:20.865Z,64.96
2023-11-22T11:28:21.384Z,64.86
2023-11-22T11:29:20.890Z,64.24
2023-11-22T11:30:20.809Z,64.14
2023-11-22T11:31:20.823Z,64.34
2023-11-22T11:32:20.841Z,64.24
2023-11-22T11:33:20.814Z,64.14
2023-11-22T11:34:20.761Z,64.55
2023-11-22T11:35:20.755Z,64.24
2023-11-22T11:36:20.725Z,63.82
2023-11-22T11:37:20.730Z,63.51
2023-11-22T11:38:20.738Z,63.51
2023-11-22T11:39:20.701Z,62.90
2023-11-22T11:40:20.675Z,63.00
2023-11-22T11:41:20.751Z,63.10
2023-11-22T11:42:22.203Z,63.62
2023-11-22T11:43:20.638Z,62.69
2023-11-22T11:44:20.668Z,62.79
2023-11-22T11:45:20.615Z,63.51
2023-11-22T11:46:20.660Z,64.34
2023-11-22T11:47:20.616Z,64.86
2023-11-22T11:48:20.635Z,62.79
2023-11-22T11:49:20.563Z,64.48
2023-11-22T11:50:20.578Z,64.68
2023-11-22T11:51:20.553Z,64.37
2023-11-22T11:52:20.526Z,64.06
2023-11-22T11:53:20.603Z,63.23
2023-11-22T11:54:20.587Z,63.75
2023-11-22T11:55:20.551Z,64.48
2023-11-22T11:56:20.558Z,66.03
2023-11-22T11:57:20.462Z,65.82
2023-11-22T11:58:20.453Z,65.41
2023-11-22T11:59:20.490Z,64.99
2023-11-22T12:00:20.433Z,64.99
2023-11-22T12:01:20.407Z,65.72
2023-11-22T12:02:20.572Z,64.99
2023-11-22T12:03:20.441Z,63.96
2023-11-22T12:04:20.380Z,64.06
2023-11-22T12:05:20.404Z,64.06
2023-11-22T12:06:20.890Z,64.58
2023-11-22T12:07:20.332Z,64.06
2023-11-22T12:08:20.382Z,63.03
2023-11-22T12:09:20.323Z,61.30
2023-11-22T12:10:20.318Z,61.30
2023-11-22T12:11:20.284Z,62.65
2023-11-22T12:12:20.274Z,62.13
2023-11-22T12:13:20.271Z,62.44
2023-11-22T12:14:20.289Z,63.13
2023-11-22T12:15:20.333Z,63.23
2023-11-22T12:16:20.261Z,64.06
2023-11-22T12:17:20.216Z,64.99
2023-11-22T12:18:20.282Z,65.20
2023-11-22T12:19:20.232Z,64.89
2023-11-22T12:20:20.869Z,63.65
2023-11-22T12:21:20.149Z,64.37
2023-11-22T12:22:20.137Z,65.72
2023-11-22T12:23:20.145Z,65.30
2023-11-22T12:24:20.115Z,65.61
2023-11-22T12:25:20.092Z,65.09
2023-11-22T12:26:20.159Z,63.85
2023-11-22T12:27:20.082Z,62.72
2023-11-22T12:28:20.969Z,60.75
2023-11-22T12:29:20.052Z,60.99
2023-11-22T12:30:20.017Z,62.54
2023-11-22T12:31:20.097Z,64.71
2023-11-22T12:32:20.011Z,64.61
2023-11-22T12:33:20.052Z,64.51
2023-11-22T12:34:19.964Z,64.48
2023-11-22T12:35:19.971Z,62.82
2023-11-22T12:36:19.944Z,62.62
2023-11-22T12:37:19.940Z,63.23
2023-11-22T12:38:19.961Z,61.51
2023-11-22T12:39:19.903Z,62.02
2023-11-22T12:40:19.884Z,62.37
2023-11-22T12:41:19.888Z,63.09
2023-11-22T12:42:19.966Z,64.23
2023-11-22T12:43:19.853Z,65.57
2023-11-22T12:44:19.865Z,66.78
2023-11-22T12:45:19.822Z,67.09
2023-11-22T12:46:19.830Z,66.16
2023-11-22T12:47:19.836Z,65.75
2023-11-22T12:48:19.834Z,66.85
2023-11-22T12:49:19.947Z,64.99
2023-11-22T12:50:20.558Z,63.44
2023-11-22T12:51:19.743Z,63.75
2023-11-22T12:52:19.754Z,64.06